Time;durP1;ratioP1;P1;durP2;ratioP2;P2;SDS_P1;SDS_P2;PMS_P1;PMS_P2;Temp;Humidity;BMP_temperature;BMP_pressure;BME280_temperature;BME280_humidity;BME280_pressure;Samples;Min_cycle;Max_cycle;Signal;HPM_P1;HPM_P2
2023/02/14 00:01:42;;;;;;;62.45;32.33;;;1.70;99.90;;;;;;5054012;28;20021;-68
2023/02/14 00:04:07;;;;;;;60.53;30.70;;;1.70;99.90;;;;;;5053733;28;20572;-67
2023/02/14 00:06:34;;;;;;;56.47;31.67;;;1.70;99.90;;;;;;5054158;28;20368;-67
2023/02/14 00:09:01;;;;;;;58.97;30.23;;;1.80;99.90;;;;;;5054050;28;20025;-67
2023/02/14 00:11:28;;;;;;;63.90;35.50;;;1.80;99.90;;;;;;5054024;28;20033;-68
2023/02/14 00:16:40;;;;;;;65.45;33.50;;;1.70;99.90;;;;;;5053535;28;20029;-67
2023/02/14 00:19:05;;;;;;;60.20;32.33;;;1.70;99.90;;;;;;5053762;28;20087;-67
2023/02/14 00:21:34;;;;;;;69.07;36.75;;;1.60;99.90;;;;;;5053852;28;20025;-68
2023/02/14 00:24:05;;;;;;;67.28;36.72;;;1.60;99.90;;;;;;5053670;28;20033;-67
2023/02/14 00:26:31;;;;;;;69.43;36.88;;;1.60;99.90;;;;;;5053816;28;20057;-67
2023/02/14 00:28:57;;;;;;;65.18;35.80;;;1.60;99.90;;;;;;5053665;28;20036;-67
2023/02/14 00:31:22;;;;;;;66.65;35.47;;;1.50;99.90;;;;;;5053487;28;20100;-66
2023/02/14 00:33:48;;;;;;;68.32;36.60;;;1.20;99.90;;;;;;5053434;28;20116;-67
2023/02/14 00:36:14;;;;;;;70.13;36.55;;;1.50;99.90;;;;;;5053443;28;20044;-67
2023/02/14 00:38:39;;;;;;;63.97;34.10;;;1.50;99.90;;;;;;5053414;28;20103;-67
2023/02/14 00:41:05;;;;;;;63.03;33.60;;;1.50;99.90;;;;;;5053363;28;20072;-67
2023/02/14 00:43:30;;;;;;;72.53;37.13;;;1.50;99.90;;;;;;5053346;28;20115;-67
2023/02/14 00:45:57;;;;;;;61.03;32.97;;;1.60;99.90;;;;;;5053424;28;20383;-68
2023/02/14 00:48:22;;;;;;;65.20;33.25;;;1.70;99.90;;;;;;5053237;28;20112;-67
2023/02/14 00:50:48;;;;;;;74.60;37.60;;;1.80;99.90;;;;;;5053396;28;20064;-68
2023/02/14 00:53:13;;;;;;;65.43;33.53;;;2.00;99.90;;;;;;5053320;28;20024;-67
2023/02/14 00:55:39;;;;;;;71.10;35.50;;;2.10;99.90;;;;;;5053194;28;20068;-67
2023/02/14 00:58:05;;;;;;;72.78;35.38;;;2.10;99.90;;;;;;5053188;28;20041;-67
2023/02/14 01:00:30;;;;;;;65.05;34.20;;;2.10;99.90;;;;;;5053456;28;20029;-67
2023/02/14 01:02:56;;;;;;;66.65;34.25;;;2.20;99.90;;;;;;5053028;28;20098;-67
2023/02/14 01:05:21;;;;;;;68.47;34.47;;;2.30;99.90;;;;;;5053045;28;20081;-67
2023/02/14 01:07:47;;;;;;;69.25;35.38;;;2.30;99.90;;;;;;5053048;28;20108;-68
2023/02/14 01:10:12;;;;;;;71.32;34.45;;;2.30;99.90;;;;;;5053127;28;20025;-67
2023/02/14 01:12:38;;;;;;;80.90;35.70;;;2.30;99.90;;;;;;5053028;28;20025;-67
2023/02/14 01:15:03;;;;;;;67.80;33.58;;;2.40;99.90;;;;;;5053267;28;20029;-67
2023/02/14 01:17:29;;;;;;;70.35;35.63;;;2.40;99.90;;;;;;5053060;28;20390;-67
2023/02/14 01:19:55;;;;;;;65.47;32.42;;;2.50;99.90;;;;;;5052969;28;20059;-67
2023/02/14 01:22:20;;;;;;;67.50;34.40;;;2.60;99.90;;;;;;5053096;28;20033;-67
2023/02/14 01:24:46;;;;;;;66.80;34.03;;;2.50;99.90;;;;;;5053547;28;20560;-67
2023/02/14 01:27:11;;;;;;;69.65;33.55;;;2.50;99.90;;;;;;5057129;28;20025;-67
2023/02/14 01:29:37;;;;;;;69.18;35.30;;;2.50;99.90;;;;;;5057133;28;20025;-67
2023/02/14 01:32:02;;;;;;;73.82;35.22;;;2.60;99.90;;;;;;5057065;28;20029;-67
2023/02/14 01:34:28;;;;;;;79.38;38.38;;;2.70;99.90;;;;;;5056720;28;20040;-68
2023/02/14 01:36:54;;;;;;;71.95;36.40;;;2.70;99.90;;;;;;5056754;28;20095;-68
2023/02/14 01:39:20;;;;;;;79.28;36.28;;;2.70;99.90;;;;;;5056907;28;20372;-67
2023/02/14 01:41:47;;;;;;;84.55;36.58;;;2.70;99.90;;;;;;5056647;28;20091;-67
2023/02/14 01:44:18;;;;;;;74.28;36.83;;;2.70;99.90;;;;;;5056613;28;20035;-67
2023/02/14 01:46:44;;;;;;;69.47;34.58;;;2.70;99.90;;;;;;5056813;28;20013;-67
2023/02/14 01:49:17;;;;;;;69.38;33.85;;;2.70;99.90;;;;;;5056507;28;20028;-66
2023/02/14 01:51:48;;;;;;;68.90;33.92;;;2.60;99.90;;;;;;5056683;28;20054;-67
2023/02/14 01:54:16;;;;;;;64.50;32.70;;;2.60;99.90;;;;;;5055475;28;20123;-68
2023/02/14 01:56:46;;;;;;;64.68;32.88;;;2.50;99.90;;;;;;5056191;28;20032;-67
2023/02/14 01:59:15;;;;;;;66.53;32.20;;;2.50;99.90;;;;;;5056368;28;20116;-67
2023/02/14 02:01:41;;;;;;;64.47;32.90;;;2.50;99.90;;;;;;5056309;28;20025;-67
2023/02/14 02:04:13;;;;;;;61.13;33.35;;;2.60;99.90;;;;;;5056007;28;20378;-67
2023/02/14 02:06:43;;;;;;;61.40;31.95;;;2.60;99.90;;;;;;5056415;28;20047;-67
2023/02/14 02:09:20;;;;;;;65.65;33.42;;;2.60;99.90;;;;;;5056192;28;20052;-67
2023/02/14 02:11:46;;;;;;;60.97;32.20;;;2.60;99.90;;;;;;5054931;28;20091;-67
2023/02/14 02:14:15;;;;;;;64.43;31.55;;;2.60;99.90;;;;;;5055892;28;20029;-67
2023/02/14 02:17:11;;;;;;;61.40;32.97;;;2.60;99.90;;;;;;5056048;28;20033;-68
2023/02/14 02:20:07;;;;;;;70.15;35.15;;;2.60;99.90;;;;;;5056107;28;20037;-67
2023/02/14 02:23:12;;;;;;;65.00;33.15;;;2.70;99.90;;;;;;5056010;28;20025;-67
2023/02/14 02:26:10;;;;;;;56.58;31.40;;;2.70;99.90;;;;;;5055954;28;20514;-67
2023/02/14 02:29:11;;;;;;;56.47;28.85;;;2.60;99.90;;;;;;5055955;28;20021;-67
2023/02/14 02:32:04;;;;;;;49.75;27.55;;;2.40;99.90;;;;;;5055593;28;20029;-68
2023/02/14 02:35:09;;;;;;;51.90;27.85;;;2.20;99.90;;;;;;5055873;28;20029;-68
2023/02/14 02:38:15;;;;;;;52.80;27.75;;;2.10;99.90;;;;;;5055243;28;20032;-67
2023/02/14 02:40:59;;;;;;;53.30;28.25;;;2.00;99.90;;;;;;5055424;28;20477;-67
2023/02/14 02:44:04;;;;;;;53.17;28.70;;;1.90;99.90;;;;;;5054405;28;20391;-67
2023/02/14 02:46:52;;;;;;;62.60;32.03;;;1.90;99.90;;;;;;5055531;28;20039;-67
2023/02/14 02:53:08;;;;;;;61.28;32.17;;;2.00;99.90;;;;;;5055176;28;20025;-67
2023/02/14 02:58:33;;;;;;;63.13;32.88;;;2.00;99.90;;;;;;5055063;28;20037;-67
2023/02/14 03:01:01;;;;;;;66.80;33.33;;;2.00;99.90;;;;;;5055371;28;20036;-67
2023/02/14 03:06:16;;;;;;;58.25;31.73;;;1.80;99.90;;;;;;5055021;28;20033;-67
2023/02/14 03:08:41;;;;;;;54.22;31.30;;;1.80;99.90;;;;;;5055095;28;20044;-67
2023/02/14 03:11:10;;;;;;;55.65;30.42;;;1.80;99.90;;;;;;5055127;28;20021;-67
2023/02/14 03:13:58;;;;;;;56.45;31.20;;;1.70;99.90;;;;;;5055175;28;20506;-68
2023/02/14 03:16:33;;;;;;;58.38;32.55;;;1.70;99.90;;;;;;5055119;28;20028;-67
2023/02/14 03:22:20;;;;;;;55.92;31.13;;;1.70;99.90;;;;;;5054648;28;20130;-67
2023/02/14 03:25:10;;;;;;;57.92;30.73;;;1.80;99.90;;;;;;5054680;28;20398;-67
2023/02/14 03:27:45;;;;;;;64.38;32.92;;;1.80;99.90;;;;;;5054865;28;20040;-67
2023/02/14 03:30:27;;;;;;;62.90;33.67;;;1.70;99.90;;;;;;5054722;28;20386;-67
2023/02/14 03:33:02;;;;;;;58.10;32.13;;;1.70;99.90;;;;;;5054643;28;20017;-67
2023/02/14 03:35:33;;;;;;;53.67;30.42;;;1.70;99.90;;;;;;5053365;28;20047;-67
2023/02/14 03:38:09;;;;;;;57.75;30.13;;;1.60;99.90;;;;;;5054464;28;20029;-67
2023/02/14 03:40:43;;;;;;;56.75;31.05;;;1.60;99.90;;;;;;5054543;28;20474;-67
2023/02/14 03:43:14;;;;;;;56.72;31.08;;;1.50;99.90;;;;;;5054366;28;20087;-67
2023/02/14 03:45:55;;;;;;;63.35;32.40;;;1.50;99.90;;;;;;5054366;28;20471;-67
2023/02/14 03:48:23;;;;;;;52.45;29.70;;;1.40;99.90;;;;;;5053421;28;20021;-67
2023/02/14 03:50:50;;;;;;;51.80;29.55;;;1.50;99.90;;;;;;5054195;28;20112;-67
2023/02/14 03:53:20;;;;;;;58.20;31.77;;;1.40;99.90;;;;;;5054362;28;20083;-67
2023/02/14 03:55:58;;;;;;;59.97;31.10;;;1.70;99.90;;;;;;5054398;28;20116;-67
2023/02/14 03:58:28;;;;;;;57.75;31.58;;;1.50;99.90;;;;;;5054069;28;20056;-67
2023/02/14 04:01:01;;;;;;;54.58;29.73;;;1.40;99.90;;;;;;5053951;28;20021;-68
2023/02/14 04:03:28;;;;;;;50.20;29.80;;;1.40;99.90;;;;;;5052541;28;20055;-68
2023/02/14 04:05:54;;;;;;;51.05;30.40;;;1.50;99.90;;;;;;5053934;28;20031;-67
2023/02/14 04:08:23;;;;;;;50.67;28.20;;;1.50;99.90;;;;;;5054066;28;20033;-67
2023/02/14 04:10:51;;;;;;;54.60;29.67;;;1.40;99.90;;;;;;5053863;28;20497;-67
2023/02/14 04:13:16;;;;;;;46.85;27.40;;;1.40;99.90;;;;;;5053791;28;20033;-67
2023/02/14 04:15:42;;;;;;;46.25;27.38;;;1.40;99.90;;;;;;5053919;28;20032;-67
2023/02/14 04:20:54;;;;;;;46.88;27.10;;;1.40;99.90;;;;;;5052505;28;20394;-67
2023/02/14 04:23:19;;;;;;;48.50;27.48;;;1.30;99.90;;;;;;5052388;28;20025;-67
2023/02/14 04:25:45;;;;;;;48.13;27.05;;;1.20;99.90;;;;;;5053697;28;20032;-67
2023/02/14 04:28:11;;;;;;;53.05;29.00;;;1.20;99.90;;;;;;5053561;28;20029;-68
2023/02/14 04:30:37;;;;;;;47.42;26.92;;;1.20;99.90;;;;;;5053565;28;20021;-67
2023/02/14 04:33:03;;;;;;;52.33;28.30;;;1.20;99.90;;;;;;5053678;28;20044;-68
2023/02/14 04:35:29;;;;;;;44.47;26.67;;;1.30;99.90;;;;;;5053561;28;20032;-67
2023/02/14 04:37:54;;;;;;;47.58;27.35;;;1.30;99.90;;;;;;5053575;28;20475;-68
2023/02/14 04:40:20;;;;;;;46.65;26.20;;;1.20;99.90;;;;;;5053558;28;20391;-67
2023/02/14 04:42:45;;;;;;;43.75;25.38;;;1.20;99.90;;;;;;5053358;28;20487;-67
2023/02/14 04:45:11;;;;;;;48.53;26.83;;;1.20;99.90;;;;;;5053263;28;20079;-67
2023/02/14 04:47:37;;;;;;;42.83;25.08;;;1.10;99.90;;;;;;5052151;28;20067;-67
2023/02/14 04:50:03;;;;;;;38.60;23.50;;;1.10;99.90;;;;;;5053411;28;20064;-67
2023/02/14 04:52:29;;;;;;;39.08;23.90;;;1.10;99.90;;;;;;5053153;28;20033;-67
2023/02/14 04:54:54;;;;;;;38.53;23.27;;;1.10;99.90;;;;;;5053164;28;20032;-67
2023/02/14 04:57:20;;;;;;;44.80;24.92;;;1.00;99.90;;;;;;5053333;28;20073;-67
2023/02/14 04:59:45;;;;;;;42.17;24.23;;;1.00;99.90;;;;;;5053041;28;20108;-67
2023/02/14 05:02:11;;;;;;;39.65;22.77;;;0.90;99.90;;;;;;5053098;28;20055;-67
2023/02/14 05:04:36;;;;;;;37.25;23.08;;;0.80;99.90;;;;;;5052923;28;20060;-67
2023/02/14 05:07:02;;;;;;;40.30;23.92;;;0.80;99.90;;;;;;5053102;28;20033;-67
2023/02/14 05:09:28;;;;;;;41.42;22.95;;;0.70;99.90;;;;;;5052827;28;20096;-69
2023/02/14 05:11:53;;;;;;;35.13;21.33;;;0.70;99.90;;;;;;5052988;28;20025;-67
2023/02/14 05:14:19;;;;;;;34.80;21.75;;;0.60;99.90;;;;;;5053139;28;20028;-68
2023/02/14 05:16:44;;;;;;;40.53;22.90;;;0.60;99.90;;;;;;5052972;28;20021;-67
2023/02/14 05:19:10;;;;;;;40.70;22.83;;;0.60;99.90;;;;;;5053004;28;20371;-67
2023/02/14 05:21:37;;;;;;;38.20;22.92;;;0.60;99.90;;;;;;5052988;28;20476;-67
2023/02/14 05:24:03;;;;;;;43.67;25.08;;;0.50;99.90;;;;;;5052941;28;20021;-67
2023/02/14 05:26:29;;;;;;;41.13;24.08;;;0.40;99.90;;;;;;5053000;28;20495;-67
2023/02/14 05:28:55;;;;;;;42.95;24.05;;;0.40;99.90;;;;;;5051585;28;20025;-67
2023/02/14 05:31:21;;;;;;;46.53;25.60;;;0.40;99.90;;;;;;5052746;28;20021;-67
2023/02/14 05:33:46;;;;;;;41.00;23.02;;;0.30;99.90;;;;;;5052756;28;20033;-67
2023/02/14 05:36:12;;;;;;;42.40;23.23;;;0.30;99.90;;;;;;5052982;28;20032;-67
2023/02/14 05:38:37;;;;;;;36.72;21.70;;;0.30;99.90;;;;;;5052952;28;20033;-67
2023/02/14 05:41:03;;;;;;;43.25;23.52;;;0.20;99.90;;;;;;5052788;28;20584;-67
2023/02/14 05:43:29;;;;;;;46.50;26.73;;;0.20;99.90;;;;;;5052533;28;20040;-67
2023/02/14 05:45:55;;;;;;;45.28;25.17;;;;;;;;;;5052694;28;20106;-67
2023/02/14 05:48:21;;;;;;;46.05;25.45;;;0.20;99.90;;;;;;5052642;28;20398;-67
2023/02/14 05:50:47;;;;;;;42.58;24.48;;;0.20;99.90;;;;;;5052684;28;20532;-68
2023/02/14 05:53:14;;;;;;;39.53;22.50;;;0.10;99.90;;;;;;5052780;28;20029;-67
2023/02/14 05:55:39;;;;;;;42.97;23.65;;;0.10;99.90;;;;;;5052698;28;20151;-68
2023/02/14 05:58:05;;;;;;;40.65;23.48;;;0.10;99.90;;;;;;5052783;28;20056;-68
2023/02/14 06:00:31;;;;;;;42.17;24.40;;;0.00;99.90;;;;;;5052344;28;20108;-67
2023/02/14 06:02:57;;;;;;;42.17;23.90;;;-0.10;99.90;;;;;;5052527;28;20464;-67
2023/02/14 06:05:22;;;;;;;42.60;24.25;;;-0.10;99.90;;;;;;5052400;28;20450;-67
2023/02/14 06:07:49;;;;;;;39.92;22.63;;;-0.10;99.90;;;;;;5052551;28;20053;-67
2023/02/14 06:10:17;;;;;;;40.75;23.73;;;-0.10;99.90;;;;;;5051514;28;20075;-67
2023/02/14 06:12:43;;;;;;;41.28;23.30;;;-0.20;99.90;;;;;;5056227;28;20029;-67
2023/02/14 06:15:08;;;;;;;40.75;23.90;;;-0.20;99.90;;;;;;5056166;28;20096;-67
2023/02/14 06:17:34;;;;;;;45.33;23.15;;;-0.20;99.90;;;;;;5056198;28;20033;-67
2023/02/14 06:19:59;;;;;;;47.03;25.85;;;-0.20;99.90;;;;;;5055930;28;20025;-67
2023/02/14 06:22:25;;;;;;;43.85;24.08;;;-0.20;99.90;;;;;;5055833;28;20025;-67
2023/02/14 06:24:50;;;;;;;43.72;23.70;;;-0.20;99.90;;;;;;5055802;28;20036;-67
2023/02/14 06:27:16;;;;;;;39.20;22.85;;;-0.20;99.90;;;;;;5055889;28;20032;-67
2023/02/14 06:29:41;;;;;;;39.90;22.17;;;-0.20;99.90;;;;;;5055781;28;20118;-68
2023/02/14 06:32:07;;;;;;;40.28;23.98;;;-0.20;99.90;;;;;;5055827;28;20025;-67
2023/02/14 06:34:33;;;;;;;39.30;22.00;;;-0.20;99.90;;;;;;5055759;28;20107;-67
2023/02/14 06:36:59;;;;;;;42.90;23.48;;;-0.20;99.90;;;;;;5055569;28;20036;-68
2023/02/14 06:39:24;;;;;;;40.78;23.85;;;-0.20;99.90;;;;;;5055553;28;20033;-67
2023/02/14 06:41:50;;;;;;;39.75;22.52;;;-0.20;99.90;;;;;;5055574;28;20033;-68
2023/02/14 06:44:15;;;;;;;40.25;22.63;;;-0.20;99.90;;;;;;5055372;28;20068;-67
2023/02/14 06:46:41;;;;;;;37.35;22.08;;;-0.20;99.90;;;;;;5055691;28;20040;-67
2023/02/14 06:49:06;;;;;;;43.95;23.85;;;-0.20;99.90;;;;;;5055655;28;20025;-67
2023/02/14 06:51:32;;;;;;;41.55;23.13;;;-0.20;99.90;;;;;;5055293;28;20147;-67
2023/02/14 06:53:57;;;;;;;48.75;24.13;;;-0.20;99.90;;;;;;5055288;28;20033;-67
2023/02/14 06:56:23;;;;;;;43.17;24.10;;;-0.10;99.90;;;;;;5055427;28;20060;-67
2023/02/14 06:58:48;;;;;;;47.17;24.00;;;-0.10;99.90;;;;;;5055412;28;20064;-67
2023/02/14 07:01:14;;;;;;;43.97;24.60;;;0.00;99.90;;;;;;5055290;28;20025;-67
2023/02/14 07:03:40;;;;;;;46.45;25.15;;;0.00;99.90;;;;;;5054932;28;20087;-67
2023/02/14 07:06:06;;;;;;;51.10;27.13;;;0.10;99.90;;;;;;5054823;28;20033;-67
2023/02/14 07:08:32;;;;;;;51.45;27.23;;;0.20;99.90;;;;;;5051565;28;20549;-67
2023/02/14 07:10:57;;;;;;;53.15;30.15;;;0.70;99.90;;;;;;5054833;28;20029;-68
2023/02/14 07:13:24;;;;;;;61.83;32.42;;;1.50;99.90;;;;;;5055073;28;20082;-68
2023/02/14 07:15:49;;;;;;;59.08;30.48;;;2.40;99.90;;;;;;5050997;28;20459;-67
2023/02/14 07:18:15;;;;;;;51.00;29.48;;;3.10;99.90;;;;;;5051585;28;20155;-67
2023/02/14 07:20:40;;;;;;;48.85;29.50;;;3.70;99.90;;;;;;5054912;28;20028;-68
2023/02/14 07:23:06;;;;;;;40.92;26.10;;;4.30;99.90;;;;;;5051404;28;20155;-67
2023/02/14 07:25:32;;;;;;;41.70;25.42;;;4.80;99.90;;;;;;5050743;28;20025;-67
2023/02/14 07:27:57;;;;;;;31.77;20.42;;;5.40;99.90;;;;;;5053529;28;20025;-67
2023/02/14 07:30:23;;;;;;;29.15;19.35;;;5.60;99.90;;;;;;5051448;28;20033;-67
2023/02/14 07:32:49;;;;;;;24.75;16.67;;;5.40;99.90;;;;;;5051238;28;20071;-67
2023/02/14 07:35:15;;;;;;;28.13;18.13;;;5.30;99.90;;;;;;5052176;28;20033;-67
2023/02/14 07:37:40;;;;;;;23.73;17.00;;;5.70;99.90;;;;;;5048723;28;20045;-67
2023/02/14 07:40:07;;;;;;;24.20;16.17;;;6.20;99.90;;;;;;5047158;28;20061;-67
2023/02/14 07:42:32;;;;;;;20.70;16.17;;;6.30;99.90;;;;;;5050330;28;20055;-67
2023/02/14 07:44:58;;;;;;;22.80;15.48;;;6.40;99.90;;;;;;5050454;28;20550;-67
2023/02/14 07:47:24;;;;;;;19.55;14.82;;;6.70;99.90;;;;;;5049556;28;20031;-67
2023/02/14 07:49:49;;;;;;;19.90;13.95;;;7.40;99.90;;;;;;5053676;28;20040;-68
2023/02/14 07:52:15;;;;;;;16.05;12.38;;;8.10;99.90;;;;;;5051891;28;20033;-68
2023/02/14 07:54:41;;;;;;;17.48;12.52;;;8.90;99.90;;;;;;5048456;28;20039;-68
2023/02/14 07:57:06;;;;;;;15.07;11.30;;;9.90;99.90;;;;;;5048211;28;20490;-68
2023/02/14 07:59:32;;;;;;;14.55;11.05;;;10.70;99.90;;;;;;5048108;28;20071;-67
2023/02/14 08:01:57;;;;;;;17.15;11.57;;;11.60;99.90;;;;;;5039027;28;20090;-68
2023/02/14 08:04:26;;;;;;;12.52;10.45;;;12.30;99.90;;;;;;5045464;28;20125;-69
2023/02/14 08:06:53;;;;;;;15.73;10.90;;;12.60;99.90;;;;;;5046805;28;20120;-68
2023/02/14 08:09:26;;;;;;;13.75;10.35;;;13.10;99.90;;;;;;5045086;28;20044;-68
2023/02/14 08:14:41;;;;;;;12.45;10.10;;;13.90;99.90;;;;;;5050788;28;20090;-68
2023/02/14 08:17:08;;;;;;;11.93;9.85;;;13.70;99.90;;;;;;5051535;28;20495;-69
2023/02/14 08:19:35;;;;;;;14.18;10.63;;;13.70;99.90;;;;;;5051371;28;20109;-69
2023/02/14 08:22:00;;;;;;;14.23;9.93;;;13.60;99.90;;;;;;5029435;28;20037;-68
2023/02/14 08:24:26;;;;;;;11.35;9.60;;;13.10;99.90;;;;;;5029489;28;20040;-69
2023/02/14 08:26:52;;;;;;;14.32;9.65;;;12.60;99.90;;;;;;5028132;28;20048;-68
2023/02/14 08:29:18;;;;;;;13.93;10.32;;;12.70;99.90;;;;;;5030963;28;20025;-69
2023/02/14 08:31:44;;;;;;;14.48;10.50;;;12.00;99.90;;;;;;5029447;28;20471;-69
2023/02/14 08:34:10;;;;;;;13.82;10.00;;;11.80;99.90;;;;;;5026873;28;20022;-69
2023/02/14 08:36:35;;;;;;;16.92;10.85;;;11.60;99.90;;;;;;5027718;28;20025;-68
2023/02/14 08:39:03;;;;;;;16.35;10.82;;;11.60;99.90;;;;;;5030420;28;20029;-68
2023/02/14 08:41:28;;;;;;;15.55;10.27;;;11.80;99.90;;;;;;5028633;28;20029;-69
2023/02/14 08:43:54;;;;;;;13.45;10.48;;;12.00;99.90;;;;;;5025263;28;20026;-69
2023/02/14 08:46:19;;;;;;;15.05;10.15;;;12.10;99.90;;;;;;5027662;28;20026;-69
2023/02/14 08:48:45;;;;;;;16.42;12.75;;;12.10;99.90;;;;;;5031672;28;20037;-68
2023/02/14 08:51:13;;;;;;;15.15;13.18;;;12.30;99.90;;;;;;5025709;28;20045;-69
2023/02/14 08:53:39;;;;;;;16.95;12.95;;;12.80;99.90;;;;;;5026269;28;20403;-68
2023/02/14 08:56:08;;;;;;;15.60;13.90;;;13.40;99.90;;;;;;5030351;28;20437;-69
2023/02/14 08:58:34;;;;;;;16.90;14.80;;;13.20;99.90;;;;;;5025291;28;20060;-68
2023/02/14 09:01:01;;;;;;;16.50;14.50;;;13.60;99.90;;;;;;5028597;28;20033;-68
2023/02/14 09:03:26;;;;;;;15.75;11.32;;;13.50;99.90;;;;;;5031946;28;20533;-68
2023/02/14 09:05:52;;;;;;;13.68;10.85;;;13.30;99.90;;;;;;5029499;28;20034;-69
2023/02/14 09:08:17;;;;;;;13.35;10.30;;;13.20;99.90;;;;;;5026007;28;20029;-67
2023/02/14 09:10:43;;;;;;;13.25;9.93;;;13.30;99.90;;;;;;5019100;28;20479;-68
2023/02/14 09:13:08;;;;;;;18.13;14.48;;;12.70;99.90;;;;;;5022451;28;20038;-68
2023/02/14 09:15:34;;;;;;;15.93;9.93;;;13.10;99.90;;;;;;5027706;28;20068;-68
2023/02/14 09:18:00;;;;;;;35.47;25.30;;;13.40;99.90;;;;;;5029438;28;20084;-69
2023/02/14 09:20:25;;;;;;;13.68;10.13;;;13.50;99.90;;;;;;5025987;28;20037;-69
2023/02/14 09:22:54;;;;;;;15.65;11.02;;;13.20;99.90;;;;;;5025421;28;20034;-69
2023/02/14 09:25:20;;;;;;;15.07;11.50;;;13.50;99.90;;;;;;5023944;28;20033;-68
2023/02/14 09:27:45;;;;;;;12.88;10.43;;;13.30;99.90;;;;;;5021572;28;20435;-68
2023/02/14 09:30:12;;;;;;;13.05;9.80;;;13.70;99.90;;;;;;5030678;28;20030;-68
2023/02/14 09:32:38;;;;;;;15.15;9.65;;;14.20;99.90;;;;;;5027885;28;20034;-69
2023/02/14 09:35:03;;;;;;;12.23;10.20;;;14.50;99.90;;;;;;5028984;28;20414;-69
2023/02/14 09:40:17;;;;;;;13.15;10.40;;;14.60;99.90;;;;;;5029125;28;20086;-69
2023/02/14 09:42:58;;;;;;;12.52;10.57;;;14.70;99.90;;;;;;5031651;28;20403;-69
2023/02/14 09:45:26;;;;;;;13.60;9.32;;;14.90;99.90;;;;;;5029662;28;20488;-68
2023/02/14 09:48:20;;;;;;;12.35;9.82;;;15.40;99.90;;;;;;5048282;28;20055;-69
2023/02/14 09:50:48;;;;;;;;;;;15.10;99.90;;;;;;5034386;28;20525;-69
2023/02/14 09:53:24;;;;;;;11.60;8.93;;;15.60;99.90;;;;;;5031156;28;19909;-69
2023/02/14 09:56:12;;;;;;;10.73;8.98;;;15.80;99.90;;;;;;5021449;28;20029;-69
2023/02/14 09:58:59;;;;;;;14.20;9.15;;;15.60;99.90;;;;;;5032702;28;20475;-69
2023/02/14 10:01:31;;;;;;;10.50;8.63;;;16.00;99.90;;;;;;5034968;28;20060;-69
2023/02/14 10:09:58;;;;;;;10.50;8.25;;;16.30;99.90;;;;;;5131407;27;20428;-67
2023/02/14 10:12:35;;;;;;;12.90;9.57;;;16.70;99.90;;;;;;5127323;27;20051;-67
2023/02/14 10:15:06;;;;;;;10.32;9.27;;;16.40;99.90;;;;;;5130160;27;20106;-68
2023/02/14 10:17:41;;;;;;;14.20;10.13;;;16.10;99.90;;;;;;5129530;27;20465;-69
2023/02/14 10:20:29;;;;;;;13.43;10.05;;;16.20;99.90;;;;;;5130479;27;20019;-69
2023/02/14 10:23:04;;;;;;;13.73;9.93;;;16.90;99.90;;;;;;5133947;27;20363;-67
2023/02/14 10:25:39;;;;;;;12.10;9.07;;;16.50;99.90;;;;;;5127330;27;20026;-68
2023/02/14 10:28:10;;;;;;;11.35;9.45;;;17.60;99.90;;;;;;5109680;28;20366;-69
2023/02/14 10:30:38;;;;;;;10.60;8.80;;;17.70;99.90;;;;;;5129201;27;20023;-66
2023/02/14 10:33:15;;;;;;;13.05;10.00;;;17.20;99.90;;;;;;5129298;27;20047;-67
2023/02/14 10:35:50;;;;;;;14.43;9.00;;;17.30;99.90;;;;;;5114363;28;20028;-67
2023/02/14 10:38:45;;;;;;;11.00;8.02;;;17.50;99.10;;;;;;5112388;28;20034;-67
2023/02/14 10:41:34;;;;;;;10.00;8.32;;;17.70;99.60;;;;;;5124954;27;20027;-66
2023/02/14 10:44:29;;;;;;;11.02;7.85;;;18.30;97.80;;;;;;5109578;28;20024;-66
2023/02/14 10:47:05;;;;;;;10.85;8.50;;;17.30;97.90;;;;;;5126676;27;20118;-67
2023/02/14 10:49:58;;;;;;;11.85;9.25;;;17.00;98.70;;;;;;5127232;28;20098;-69
2023/02/14 10:52:37;;;;;;;10.43;8.43;;;17.00;99.90;;;;;;5128988;27;20026;-66
2023/02/14 10:55:18;;;;;;;12.82;8.57;;;16.80;98.90;;;;;;5126962;27;20498;-65
2023/02/14 10:57:49;;;;;;;10.85;8.60;;;17.00;99.90;;;;;;5127125;27;20024;-67
2023/02/14 11:00:34;;;;;;;10.40;8.40;;;17.30;99.40;;;;;;5121752;28;20027;-66
2023/02/14 11:03:04;;;;;;;11.10;8.20;;;17.10;99.00;;;;;;5119977;27;20062;-67
2023/02/14 11:05:41;;;;;;;13.02;8.93;;;17.40;98.60;;;;;;5125409;27;20035;-67
2023/02/14 11:08:35;;;;;;;12.38;8.48;;;16.40;99.50;;;;;;5111928;28;20051;-67
2023/02/14 11:11:06;;;;;;;;;;;16.00;99.90;;;;;;5120800;27;20504;-66
2023/02/14 11:13:35;;;;;;;10.55;8.55;;;16.50;99.90;;;;;;5109968;28;20421;-68
2023/02/14 11:16:05;;;;;;;13.57;8.30;;;17.10;99.40;;;;;;5124318;27;20023;-68
2023/02/14 11:18:34;;;;;;;11.48;8.20;;;18.10;98.20;;;;;;5122601;27;20031;-67
2023/02/14 11:21:04;;;;;;;12.65;8.27;;;17.90;97.90;;;;;;5107881;28;20489;-67
2023/02/14 11:23:33;;;;;;;9.57;8.20;;;18.50;97.40;;;;;;5107285;28;20031;-67
2023/02/14 11:25:59;;;;;;;10.75;8.40;;;18.20;96.80;;;;;;5110754;28;20031;-68
2023/02/14 11:28:26;;;;;;;11.93;8.50;;;17.90;96.30;;;;;;5113474;28;20034;-68
2023/02/14 11:30:52;;;;;;;10.90;8.20;;;18.60;95.80;;;;;;5113659;28;20024;-69
2023/02/14 11:33:39;;;;;;;11.23;8.95;;;18.40;95.50;;;;;;5108797;28;20023;-69
2023/02/14 11:36:10;;;;;;;13.30;8.73;;;17.50;96.80;;;;;;5099769;28;20477;-68
2023/02/14 11:38:38;;;;;;;13.23;9.60;;;17.40;97.10;;;;;;5113611;28;20036;-68
2023/02/14 11:41:08;;;;;;;10.32;8.13;;;16.70;98.70;;;;;;5092277;28;20378;-67
2023/02/14 11:43:36;;;;;;;12.23;8.77;;;16.30;99.50;;;;;;5114426;28;20051;-67
2023/02/14 11:49:05;;;;;;;10.88;8.68;;;15.50;99.90;;;;;;5089533;28;20736;-68
2023/02/14 11:51:44;;;;;;;12.88;10.02;;;15.20;99.90;;;;;;5069426;28;20043;-68
2023/02/14 11:54:21;;;;;;;14.10;9.20;;;15.00;99.90;;;;;;5078856;28;20474;-68
2023/02/14 11:56:52;;;;;;;12.82;8.90;;;14.70;99.90;;;;;;5082655;28;20032;-67
2023/02/14 11:59:45;;;;;;;18.10;9.60;;;14.60;99.90;;;;;;5065817;28;20508;-66
2023/02/14 12:02:39;;;;;;;14.18;9.10;;;14.70;99.90;;;;;;5072659;28;20017;-68
2023/02/14 12:05:16;;;;;;;;;;;14.40;99.90;;;;;;5050433;28;20056;-68
2023/02/14 12:07:44;;;;;;;15.32;9.38;;;14.70;99.90;;;;;;5054197;28;20380;-69
2023/02/14 12:13:08;;;;;;;15.55;10.25;;;14.70;99.90;;;;;;5110898;27;20137;-68
2023/02/14 12:15:45;;;;;;;14.90;9.98;;;14.50;99.90;;;;;;5109779;28;20043;-68
2023/02/14 12:18:23;;;;;;;14.88;9.60;;;14.80;99.90;;;;;;5103795;28;20086;-68
2023/02/14 12:21:15;;;;;;;16.55;9.93;;;15.00;99.90;;;;;;5096326;28;20031;-67
2023/02/14 12:23:49;;;;;;;16.08;9.48;;;14.90;99.90;;;;;;5094234;28;20105;-68
2023/02/14 12:26:39;;;;;;;15.60;10.30;;;14.80;99.90;;;;;;5100384;28;20016;-67
2023/02/14 12:29:25;;;;;;;15.00;9.35;;;14.50;99.90;;;;;;5092680;28;20020;-68
2023/02/14 12:31:52;;;;;;;13.57;9.45;;;14.50;99.90;;;;;;5102694;28;20032;-68
2023/02/14 12:34:19;;;;;;;17.27;10.00;;;14.50;99.90;;;;;;5108804;28;20552;-68
2023/02/14 12:40:17;;;;;;;18.40;10.18;;;14.60;99.90;;;;;;5083029;28;20430;-67
2023/02/14 12:43:23;;;;;;;12.50;9.15;;;14.60;99.90;;;;;;5073197;28;20486;-67
2023/02/14 12:46:05;;;;;;;12.57;8.52;;;14.60;99.90;;;;;;5070564;28;20029;-67
2023/02/14 12:48:59;;;;;;;15.40;9.50;;;14.80;99.90;;;;;;5091117;28;20418;-67
2023/02/14 12:51:54;;;;;;;15.32;9.52;;;14.80;99.90;;;;;;5083773;28;20706;-67
2023/02/14 12:54:42;;;;;;;17.52;9.95;;;14.80;99.90;;;;;;5088959;28;20107;-67
2023/02/14 13:00:16;;;;;;;14.02;9.68;;;14.60;99.90;;;;;;5087164;28;20367;-67
2023/02/14 13:03:12;;;;;;;14.27;9.82;;;14.70;99.90;;;;;;5072516;28;20086;-67
2023/02/14 13:05:52;;;;;;;16.00;9.60;;;14.70;99.90;;;;;;5070765;28;20025;-67
2023/02/14 13:09:00;;;;;;;15.48;9.30;;;14.50;99.90;;;;;;5071269;28;20392;-67
2023/02/14 13:11:46;;;;;;;12.40;9.27;;;14.40;99.90;;;;;;5068486;28;20025;-67
2023/02/14 13:14:51;;;;;;;13.88;9.07;;;14.70;99.90;;;;;;5070265;28;20032;-67
2023/02/14 13:20:37;;;;;;;14.77;8.98;;;14.70;99.90;;;;;;5084949;28;20976;-67
2023/02/14 13:23:09;;;;;;;12.65;9.02;;;14.80;99.90;;;;;;5083093;28;20039;-67
2023/02/14 13:25:41;;;;;;;16.65;9.85;;;14.90;99.90;;;;;;5065185;28;20020;-67
2023/02/14 13:28:12;;;;;;;14.50;10.07;;;15.00;99.90;;;;;;5068333;28;20439;-66
2023/02/14 13:30:41;;;;;;;13.45;10.07;;;14.80;99.90;;;;;;5087558;28;20556;-66
2023/02/14 13:33:16;;;;;;;15.20;9.35;;;14.90;99.90;;;;;;5065053;28;20031;-66
2023/02/14 13:35:42;;;;;;;10.90;8.65;;;14.90;99.90;;;;;;5069298;28;20487;-66
2023/02/14 13:38:13;;;;;;;16.52;8.93;;;14.90;99.90;;;;;;5069723;28;20041;-66
2023/02/14 13:40:40;;;;;;;13.18;9.20;;;14.80;99.90;;;;;;5071573;28;20028;-67